sensor_id;sensor_type;location;lat;lon;timestamp;P1;durP1;ratioP1;P2;durP2;ratioP2
66609;SDS011;53468;48.276;14.416;2023-02-26T00:04:41;6.57;;;4.40;;
66609;SDS011;53468;48.276;14.416;2023-02-26T00:09:43;8.23;;;4.43;;
66609;SDS011;53468;48.276;14.416;2023-02-26T00:14:47;7.55;;;4.90;;
66609;SDS011;53468;48.276;14.416;2023-02-26T00:19:50;7.95;;;4.93;;
66609;SDS011;53468;48.276;14.416;2023-02-26T00:24:53;8.20;;;4.82;;
66609;SDS011;53468;48.276;14.416;2023-02-26T00:29:56;12.85;;;5.50;;
66609;SDS011;53468;48.276;14.416;2023-02-26T00:34:59;7.53;;;4.15;;
66609;SDS011;53468;48.276;14.416;2023-02-26T00:40:09;8.55;;;4.32;;
66609;SDS011;53468;48.276;14.416;2023-02-26T00:45:17;5.50;;;2.97;;
66609;SDS011;53468;48.276;14.416;2023-02-26T00:50:21;4.95;;;3.03;;
66609;SDS011;53468;48.276;14.416;2023-02-26T00:55:25;4.70;;;2.83;;
66609;SDS011;53468;48.276;14.416;2023-02-26T01:00:28;4.45;;;2.42;;
66609;SDS011;53468;48.276;14.416;2023-02-26T01:05:31;4.35;;;2.30;;
66609;SDS011;53468;48.276;14.416;2023-02-26T01:10:34;3.38;;;1.67;;
66609;SDS011;53468;48.276;14.416;2023-02-26T01:15:39;2.40;;;1.58;;
66609;SDS011;53468;48.276;14.416;2023-02-26T01:20:48;3.37;;;1.90;;
66609;SDS011;53468;48.276;14.416;2023-02-26T01:25:54;2.15;;;1.40;;
66609;SDS011;53468;48.276;14.416;2023-02-26T01:31:01;3.65;;;1.50;;
66609;SDS011;53468;48.276;14.416;2023-02-26T01:36:07;1.75;;;1.10;;
66609;SDS011;53468;48.276;14.416;2023-02-26T01:46:33;1.90;;;1.25;;
66609;SDS011;53468;48.276;14.416;2023-02-26T01:51:41;2.40;;;1.48;;
66609;SDS011;53468;48.276;14.416;2023-02-26T01:56:49;2.53;;;1.52;;
66609;SDS011;53468;48.276;14.416;2023-02-26T02:01:55;3.15;;;1.35;;
66609;SDS011;53468;48.276;14.416;2023-02-26T02:06:58;4.30;;;2.38;;
66609;SDS011;53468;48.276;14.416;2023-02-26T02:12:06;3.05;;;1.67;;
66609;SDS011;53468;48.276;14.416;2023-02-26T02:17:17;3.10;;;1.08;;
66609;SDS011;53468;48.276;14.416;2023-02-26T02:28:02;1.90;;;1.05;;
66609;SDS011;53468;48.276;14.416;2023-02-26T02:33:15;2.15;;;1.20;;
66609;SDS011;53468;48.276;14.416;2023-02-26T02:38:25;2.65;;;1.50;;
66609;SDS011;53468;48.276;14.416;2023-02-26T02:43:31;4.15;;;1.58;;
66609;SDS011;53468;48.276;14.416;2023-02-26T02:48:38;2.00;;;1.20;;
66609;SDS011;53468;48.276;14.416;2023-02-26T02:53:43;1.95;;;0.93;;
66609;SDS011;53468;48.276;14.416;2023-02-26T02:58:55;2.60;;;1.52;;
66609;SDS011;53468;48.276;14.416;2023-02-26T03:04:05;2.13;;;1.10;;
66609;SDS011;53468;48.276;14.416;2023-02-26T03:09:09;2.00;;;0.95;;
66609;SDS011;53468;48.276;14.416;2023-02-26T03:14:11;1.23;;;0.82;;
66609;SDS011;53468;48.276;14.416;2023-02-26T03:19:17;1.75;;;1.08;;
66609;SDS011;53468;48.276;14.416;2023-02-26T03:24:26;2.03;;;1.40;;
66609;SDS011;53468;48.276;14.416;2023-02-26T03:29:33;2.58;;;1.13;;
66609;SDS011;53468;48.276;14.416;2023-02-26T03:34:45;2.20;;;1.05;;
66609;SDS011;53468;48.276;14.416;2023-02-26T03:39:51;2.15;;;1.27;;
66609;SDS011;53468;48.276;14.416;2023-02-26T03:44:56;1.75;;;0.90;;
66609;SDS011;53468;48.276;14.416;2023-02-26T03:50:03;2.10;;;1.20;;
66609;SDS011;53468;48.276;14.416;2023-02-26T03:55:08;2.85;;;1.50;;
66609;SDS011;53468;48.276;14.416;2023-02-26T04:00:14;2.08;;;1.25;;
66609;SDS011;53468;48.276;14.416;2023-02-26T04:05:21;2.28;;;1.50;;
66609;SDS011;53468;48.276;14.416;2023-02-26T04:10:28;2.53;;;1.20;;
66609;SDS011;53468;48.276;14.416;2023-02-26T04:15:37;2.58;;;1.27;;
66609;SDS011;53468;48.276;14.416;2023-02-26T04:20:40;1.73;;;1.00;;
66609;SDS011;53468;48.276;14.416;2023-02-26T04:25:43;3.00;;;1.40;;
66609;SDS011;53468;48.276;14.416;2023-02-26T04:30:45;2.92;;;1.55;;
66609;SDS011;53468;48.276;14.416;2023-02-26T04:35:48;1.30;;;1.00;;
66609;SDS011;53468;48.276;14.416;2023-02-26T04:40:50;2.58;;;1.60;;
66609;SDS011;53468;48.276;14.416;2023-02-26T04:45:52;3.00;;;1.73;;
66609;SDS011;53468;48.276;14.416;2023-02-26T04:50:55;2.58;;;1.33;;
66609;SDS011;53468;48.276;14.416;2023-02-26T04:55:58;1.75;;;1.30;;
66609;SDS011;53468;48.276;14.416;2023-02-26T05:01:01;2.00;;;1.30;;
66609;SDS011;53468;48.276;14.416;2023-02-26T05:06:04;2.30;;;1.52;;
66609;SDS011;53468;48.276;14.416;2023-02-26T05:11:07;2.35;;;1.33;;
66609;SDS011;53468;48.276;14.416;2023-02-26T05:16:09;2.63;;;1.17;;
66609;SDS011;53468;48.276;14.416;2023-02-26T05:21:13;2.75;;;1.60;;
66609;SDS011;53468;48.276;14.416;2023-02-26T05:26:16;2.97;;;1.60;;
66609;SDS011;53468;48.276;14.416;2023-02-26T05:31:18;1.85;;;1.10;;
66609;SDS011;53468;48.276;14.416;2023-02-26T05:36:22;2.90;;;1.33;;
66609;SDS011;53468;48.276;14.416;2023-02-26T05:41:24;3.53;;;1.55;;
66609;SDS011;53468;48.276;14.416;2023-02-26T05:46:26;3.15;;;1.50;;
66609;SDS011;53468;48.276;14.416;2023-02-26T05:51:29;2.72;;;1.33;;
66609;SDS011;53468;48.276;14.416;2023-02-26T05:56:32;2.85;;;1.40;;
66609;SDS011;53468;48.276;14.416;2023-02-26T06:01:34;2.38;;;1.52;;
66609;SDS011;53468;48.276;14.416;2023-02-26T06:06:38;2.03;;;1.17;;
66609;SDS011;53468;48.276;14.416;2023-02-26T06:11:41;2.90;;;1.38;;
66609;SDS011;53468;48.276;14.416;2023-02-26T06:16:43;2.78;;;1.40;;
66609;SDS011;53468;48.276;14.416;2023-02-26T06:21:46;1.90;;;1.30;;
66609;SDS011;53468;48.276;14.416;2023-02-26T06:26:48;3.10;;;1.40;;
66609;SDS011;53468;48.276;14.416;2023-02-26T06:31:50;6.13;;;2.40;;
66609;SDS011;53468;48.276;14.416;2023-02-26T06:36:53;4.20;;;2.00;;
66609;SDS011;53468;48.276;14.416;2023-02-26T06:41:56;2.70;;;1.40;;
66609;SDS011;53468;48.276;14.416;2023-02-26T06:46:58;5.80;;;2.08;;
66609;SDS011;53468;48.276;14.416;2023-02-26T06:52:01;3.13;;;1.58;;
66609;SDS011;53468;48.276;14.416;2023-02-26T06:57:04;4.03;;;2.05;;
66609;SDS011;53468;48.276;14.416;2023-02-26T07:02:06;3.28;;;1.70;;
66609;SDS011;53468;48.276;14.416;2023-02-26T07:07:17;3.38;;;1.90;;
66609;SDS011;53468;48.276;14.416;2023-02-26T07:12:19;3.75;;;1.55;;
66609;SDS011;53468;48.276;14.416;2023-02-26T07:17:21;5.40;;;2.70;;
66609;SDS011;53468;48.276;14.416;2023-02-26T07:22:24;5.38;;;2.50;;
66609;SDS011;53468;48.276;14.416;2023-02-26T07:27:26;3.95;;;2.22;;
66609;SDS011;53468;48.276;14.416;2023-02-26T07:32:29;3.17;;;1.83;;
66609;SDS011;53468;48.276;14.416;2023-02-26T07:37:32;2.92;;;1.67;;
66609;SDS011;53468;48.276;14.416;2023-02-26T07:42:34;2.85;;;1.60;;
66609;SDS011;53468;48.276;14.416;2023-02-26T07:47:37;5.55;;;2.70;;
66609;SDS011;53468;48.276;14.416;2023-02-26T07:52:41;2.92;;;1.50;;
66609;SDS011;53468;48.276;14.416;2023-02-26T07:57:43;3.45;;;1.98;;
66609;SDS011;53468;48.276;14.416;2023-02-26T08:02:45;3.45;;;1.48;;
66609;SDS011;53468;48.276;14.416;2023-02-26T08:07:49;2.65;;;1.52;;
66609;SDS011;53468;48.276;14.416;2023-02-26T08:12:51;2.97;;;1.77;;
66609;SDS011;53468;48.276;14.416;2023-02-26T08:17:53;2.22;;;1.10;;
66609;SDS011;53468;48.276;14.416;2023-02-26T08:23:00;3.80;;;1.80;;
66609;SDS011;53468;48.276;14.416;2023-02-26T08:28:04;1.85;;;1.20;;
66609;SDS011;53468;48.276;14.416;2023-02-26T08:33:06;2.40;;;1.27;;
66609;SDS011;53468;48.276;14.416;2023-02-26T08:38:10;2.97;;;1.52;;
66609;SDS011;53468;48.276;14.416;2023-02-26T08:43:12;2.88;;;1.50;;
66609;SDS011;53468;48.276;14.416;2023-02-26T08:48:14;6.32;;;3.60;;
66609;SDS011;53468;48.276;14.416;2023-02-26T08:53:38;6.22;;;3.47;;
66609;SDS011;53468;48.276;14.416;2023-02-26T08:58:40;8.57;;;5.22;;
66609;SDS011;53468;48.276;14.416;2023-02-26T09:03:43;7.07;;;4.43;;
66609;SDS011;53468;48.276;14.416;2023-02-26T09:08:47;10.35;;;5.45;;
66609;SDS011;53468;48.276;14.416;2023-02-26T09:13:50;8.63;;;5.05;;
66609;SDS011;53468;48.276;14.416;2023-02-26T09:18:52;7.55;;;4.15;;
66609;SDS011;53468;48.276;14.416;2023-02-26T09:24:01;3.70;;;2.25;;
66609;SDS011;53468;48.276;14.416;2023-02-26T09:29:14;4.45;;;2.17;;
66609;SDS011;53468;48.276;14.416;2023-02-26T09:34:48;3.45;;;2.22;;
66609;SDS011;53468;48.276;14.416;2023-02-26T09:39:55;3.63;;;2.33;;
66609;SDS011;53468;48.276;14.416;2023-02-26T09:44:57;2.00;;;1.33;;
66609;SDS011;53468;48.276;14.416;2023-02-26T09:50:02;2.83;;;1.67;;
66609;SDS011;53468;48.276;14.416;2023-02-26T09:55:14;2.08;;;1.15;;
66609;SDS011;53468;48.276;14.416;2023-02-26T10:00:22;1.77;;;1.17;;
66609;SDS011;53468;48.276;14.416;2023-02-26T10:05:50;6.20;;;1.17;;
66609;SDS011;53468;48.276;14.416;2023-02-26T10:11:13;2.58;;;1.30;;
66609;SDS011;53468;48.276;14.416;2023-02-26T10:16:25;2.13;;;1.20;;
66609;SDS011;53468;48.276;14.416;2023-02-26T10:21:31;3.38;;;1.20;;
66609;SDS011;53468;48.276;14.416;2023-02-26T10:26:38;1.92;;;1.00;;
66609;SDS011;53468;48.276;14.416;2023-02-26T10:31:48;1.10;;;0.80;;
66609;SDS011;53468;48.276;14.416;2023-02-26T10:37:01;1.55;;;0.85;;
66609;SDS011;53468;48.276;14.416;2023-02-26T10:42:14;2.30;;;1.08;;
66609;SDS011;53468;48.276;14.416;2023-02-26T10:47:20;2.30;;;1.10;;
66609;SDS011;53468;48.276;14.416;2023-02-26T10:52:30;1.33;;;0.80;;
66609;SDS011;53468;48.276;14.416;2023-02-26T10:57:36;1.42;;;0.77;;
66609;SDS011;53468;48.276;14.416;2023-02-26T11:02:43;2.38;;;0.95;;
66609;SDS011;53468;48.276;14.416;2023-02-26T11:07:48;2.17;;;1.08;;
66609;SDS011;53468;48.276;14.416;2023-02-26T11:12:54;0.88;;;0.55;;
66609;SDS011;53468;48.276;14.416;2023-02-26T11:17:56;1.23;;;0.70;;
66609;SDS011;53468;48.276;14.416;2023-02-26T11:23:01;1.92;;;1.08;;
66609;SDS011;53468;48.276;14.416;2023-02-26T11:28:06;1.50;;;0.90;;
66609;SDS011;53468;48.276;14.416;2023-02-26T11:33:21;3.38;;;0.82;;
66609;SDS011;53468;48.276;14.416;2023-02-26T11:38:27;1.35;;;0.88;;
66609;SDS011;53468;48.276;14.416;2023-02-26T11:43:38;1.77;;;1.08;;
66609;SDS011;53468;48.276;14.416;2023-02-26T11:48:43;2.40;;;0.77;;
66609;SDS011;53468;48.276;14.416;2023-02-26T11:53:50;1.58;;;0.93;;
66609;SDS011;53468;48.276;14.416;2023-02-26T11:58:56;1.40;;;0.80;;
66609;SDS011;53468;48.276;14.416;2023-02-26T12:04:04;2.97;;;0.90;;
66609;SDS011;53468;48.276;14.416;2023-02-26T12:09:08;0.75;;;0.55;;
66609;SDS011;53468;48.276;14.416;2023-02-26T12:14:19;1.27;;;0.70;;
66609;SDS011;53468;48.276;14.416;2023-02-26T12:19:42;2.58;;;1.05;;
66609;SDS011;53468;48.276;14.416;2023-02-26T12:25:01;2.60;;;0.70;;
66609;SDS011;53468;48.276;14.416;2023-02-26T12:30:26;1.60;;;0.73;;
66609;SDS011;53468;48.276;14.416;2023-02-26T12:35:54;1.42;;;1.00;;
66609;SDS011;53468;48.276;14.416;2023-02-26T12:41:09;1.67;;;0.82;;
66609;SDS011;53468;48.276;14.416;2023-02-26T12:46:46;0.95;;;0.63;;
66609;SDS011;53468;48.276;14.416;2023-02-26T12:52:02;2.72;;;1.10;;
66609;SDS011;53468;48.276;14.416;2023-02-26T12:57:26;1.60;;;1.02;;
66609;SDS011;53468;48.276;14.416;2023-02-26T13:03:07;0.65;;;0.50;;
66609;SDS011;53468;48.276;14.416;2023-02-26T13:08:30;2.33;;;0.65;;
66609;SDS011;53468;48.276;14.416;2023-02-26T13:19:04;1.73;;;0.77;;
66609;SDS011;53468;48.276;14.416;2023-02-26T13:24:16;1.48;;;0.70;;
66609;SDS011;53468;48.276;14.416;2023-02-26T13:29:23;1.05;;;0.60;;
66609;SDS011;53468;48.276;14.416;2023-02-26T13:34:34;1.65;;;0.77;;
66609;SDS011;53468;48.276;14.416;2023-02-26T13:44:50;2.17;;;1.10;;
66609;SDS011;53468;48.276;14.416;2023-02-26T13:50:15;1.70;;;0.70;;
66609;SDS011;53468;48.276;14.416;2023-02-26T13:55:34;1.75;;;0.93;;
66609;SDS011;53468;48.276;14.416;2023-02-26T14:00:44;1.13;;;0.70;;
66609;SDS011;53468;48.276;14.416;2023-02-26T14:05:52;1.63;;;0.88;;
66609;SDS011;53468;48.276;14.416;2023-02-26T14:11:24;1.30;;;1.00;;
66609;SDS011;53468;48.276;14.416;2023-02-26T14:16:49;2.72;;;1.42;;
66609;SDS011;53468;48.276;14.416;2023-02-26T14:21:56;1.23;;;0.70;;
66609;SDS011;53468;48.276;14.416;2023-02-26T14:27:22;2.75;;;0.80;;
66609;SDS011;53468;48.276;14.416;2023-02-26T14:32:32;1.25;;;0.82;;
66609;SDS011;53468;48.276;14.416;2023-02-26T14:37:36;1.75;;;0.93;;
66609;SDS011;53468;48.276;14.416;2023-02-26T14:42:42;1.45;;;0.73;;
66609;SDS011;53468;48.276;14.416;2023-02-26T14:47:47;0.95;;;0.68;;
66609;SDS011;53468;48.276;14.416;2023-02-26T14:52:55;1.75;;;0.60;;
66609;SDS011;53468;48.276;14.416;2023-02-26T14:58:25;1.25;;;0.35;;
66609;SDS011;53468;48.276;14.416;2023-02-26T15:03:51;1.45;;;0.50;;
66609;SDS011;53468;48.276;14.416;2023-02-26T15:09:10;0.87;;;0.50;;
66609;SDS011;53468;48.276;14.416;2023-02-26T15:14:23;1.13;;;0.45;;
66609;SDS011;53468;48.276;14.416;2023-02-26T15:19:48;2.38;;;0.80;;
66609;SDS011;53468;48.276;14.416;2023-02-26T15:25:01;2.10;;;0.73;;
66609;SDS011;53468;48.276;14.416;2023-02-26T15:30:04;1.00;;;0.65;;
66609;SDS011;53468;48.276;14.416;2023-02-26T15:35:14;1.10;;;0.63;;
66609;SDS011;53468;48.276;14.416;2023-02-26T15:40:19;1.50;;;0.70;;
66609;SDS011;53468;48.276;14.416;2023-02-26T15:45:24;3.80;;;0.88;;
66609;SDS011;53468;48.276;14.416;2023-02-26T15:50:29;1.38;;;0.60;;
66609;SDS011;53468;48.276;14.416;2023-02-26T15:55:37;1.77;;;0.77;;
66609;SDS011;53468;48.276;14.416;2023-02-26T16:00:50;1.45;;;0.88;;
66609;SDS011;53468;48.276;14.416;2023-02-26T16:05:54;3.10;;;0.90;;
66609;SDS011;53468;48.276;14.416;2023-02-26T16:10:59;4.43;;;1.23;;
66609;SDS011;53468;48.276;14.416;2023-02-26T16:16:03;1.80;;;0.80;;
66609;SDS011;53468;48.276;14.416;2023-02-26T16:21:09;3.67;;;1.00;;
66609;SDS011;53468;48.276;14.416;2023-02-26T16:26:23;2.05;;;1.00;;
66609;SDS011;53468;48.276;14.416;2023-02-26T16:31:31;1.90;;;0.95;;
66609;SDS011;53468;48.276;14.416;2023-02-26T16:36:37;1.98;;;0.90;;
66609;SDS011;53468;48.276;14.416;2023-02-26T16:41:46;1.52;;;0.65;;
66609;SDS011;53468;48.276;14.416;2023-02-26T16:46:49;1.48;;;0.80;;
66609;SDS011;53468;48.276;14.416;2023-02-26T16:51:52;2.33;;;1.23;;
66609;SDS011;53468;48.276;14.416;2023-02-26T16:56:58;1.92;;;0.90;;
66609;SDS011;53468;48.276;14.416;2023-02-26T17:02:02;2.03;;;0.80;;
66609;SDS011;53468;48.276;14.416;2023-02-26T17:07:13;2.47;;;1.08;;
66609;SDS011;53468;48.276;14.416;2023-02-26T17:12:18;2.37;;;1.33;;
66609;SDS011;53468;48.276;14.416;2023-02-26T17:17:21;3.10;;;1.58;;
66609;SDS011;53468;48.276;14.416;2023-02-26T17:22:24;1.45;;;0.90;;
66609;SDS011;53468;48.276;14.416;2023-02-26T17:27:29;1.33;;;0.80;;
66609;SDS011;53468;48.276;14.416;2023-02-26T17:32:33;4.25;;;1.48;;
66609;SDS011;53468;48.276;14.416;2023-02-26T17:37:35;3.13;;;1.30;;
66609;SDS011;53468;48.276;14.416;2023-02-26T17:42:40;3.22;;;1.73;;
66609;SDS011;53468;48.276;14.416;2023-02-26T17:47:42;3.15;;;1.25;;
66609;SDS011;53468;48.276;14.416;2023-02-26T17:52:46;1.95;;;1.13;;
66609;SDS011;53468;48.276;14.416;2023-02-26T17:57:50;3.75;;;1.48;;
66609;SDS011;53468;48.276;14.416;2023-02-26T18:02:52;6.10;;;1.98;;
66609;SDS011;53468;48.276;14.416;2023-02-26T18:07:54;7.50;;;1.98;;
66609;SDS011;53468;48.276;14.416;2023-02-26T18:12:58;3.88;;;1.98;;
66609;SDS011;53468;48.276;14.416;2023-02-26T18:18:00;3.67;;;1.60;;
66609;SDS011;53468;48.276;14.416;2023-02-26T18:23:02;6.75;;;1.77;;
66609;SDS011;53468;48.276;14.416;2023-02-26T18:28:10;2.40;;;1.33;;
66609;SDS011;53468;48.276;14.416;2023-02-26T18:33:16;4.18;;;1.48;;
66609;SDS011;53468;48.276;14.416;2023-02-26T18:38:18;3.42;;;1.38;;
66609;SDS011;53468;48.276;14.416;2023-02-26T18:43:23;1.85;;;1.13;;
66609;SDS011;53468;48.276;14.416;2023-02-26T18:48:25;2.25;;;1.13;;
66609;SDS011;53468;48.276;14.416;2023-02-26T18:53:27;3.97;;;1.83;;
66609;SDS011;53468;48.276;14.416;2023-02-26T18:58:31;2.70;;;1.40;;
66609;SDS011;53468;48.276;14.416;2023-02-26T19:03:33;3.95;;;1.15;;
66609;SDS011;53468;48.276;14.416;2023-02-26T19:08:36;2.70;;;1.30;;
66609;SDS011;53468;48.276;14.416;2023-02-26T19:13:39;2.83;;;1.70;;
66609;SDS011;53468;48.276;14.416;2023-02-26T19:18:41;6.57;;;1.80;;
66609;SDS011;53468;48.276;14.416;2023-02-26T19:23:43;3.88;;;1.27;;
66609;SDS011;53468;48.276;14.416;2023-02-26T19:28:47;3.40;;;1.45;;
66609;SDS011;53468;48.276;14.416;2023-02-26T19:33:49;1.95;;;1.25;;
66609;SDS011;53468;48.276;14.416;2023-02-26T19:38:51;2.90;;;1.60;;
66609;SDS011;53468;48.276;14.416;2023-02-26T19:43:54;2.67;;;1.17;;
66609;SDS011;53468;48.276;14.416;2023-02-26T19:48:57;2.58;;;1.30;;
66609;SDS011;53468;48.276;14.416;2023-02-26T19:53:59;3.35;;;1.50;;
66609;SDS011;53468;48.276;14.416;2023-02-26T19:59:03;3.45;;;1.42;;
66609;SDS011;53468;48.276;14.416;2023-02-26T20:04:05;2.42;;;1.33;;
66609;SDS011;53468;48.276;14.416;2023-02-26T20:09:07;2.28;;;1.13;;
66609;SDS011;53468;48.276;14.416;2023-02-26T20:14:12;2.55;;;1.40;;
66609;SDS011;53468;48.276;14.416;2023-02-26T20:19:14;2.78;;;1.08;;
66609;SDS011;53468;48.276;14.416;2023-02-26T20:24:17;3.20;;;1.60;;
66609;SDS011;53468;48.276;14.416;2023-02-26T20:29:20;3.30;;;1.38;;
66609;SDS011;53468;48.276;14.416;2023-02-26T20:34:23;3.55;;;1.83;;
66609;SDS011;53468;48.276;14.416;2023-02-26T20:39:25;2.30;;;1.50;;
66609;SDS011;53468;48.276;14.416;2023-02-26T20:44:28;2.33;;;1.42;;
66609;SDS011;53468;48.276;14.416;2023-02-26T20:49:31;3.08;;;1.55;;
66609;SDS011;53468;48.276;14.416;2023-02-26T20:54:33;5.57;;;2.47;;
66609;SDS011;53468;48.276;14.416;2023-02-26T20:59:36;4.15;;;2.15;;
66609;SDS011;53468;48.276;14.416;2023-02-26T21:04:38;3.88;;;1.70;;
66609;SDS011;53468;48.276;14.416;2023-02-26T21:09:40;3.38;;;2.05;;
66609;SDS011;53468;48.276;14.416;2023-02-26T21:14:44;3.38;;;1.63;;
66609;SDS011;53468;48.276;14.416;2023-02-26T21:19:49;4.30;;;1.88;;
66609;SDS011;53468;48.276;14.416;2023-02-26T21:24:51;3.50;;;1.95;;
66609;SDS011;53468;48.276;14.416;2023-02-26T21:29:54;3.45;;;2.05;;
66609;SDS011;53468;48.276;14.416;2023-02-26T21:34:56;3.88;;;2.33;;
66609;SDS011;53468;48.276;14.416;2023-02-26T21:39:58;4.13;;;1.90;;
66609;SDS011;53468;48.276;14.416;2023-02-26T21:45:02;3.35;;;1.98;;
66609;SDS011;53468;48.276;14.416;2023-02-26T21:50:05;4.18;;;2.30;;
66609;SDS011;53468;48.276;14.416;2023-02-26T21:55:08;5.00;;;2.70;;
66609;SDS011;53468;48.276;14.416;2023-02-26T22:00:15;4.05;;;2.65;;
66609;SDS011;53468;48.276;14.416;2023-02-26T22:05:18;4.10;;;2.30;;
66609;SDS011;53468;48.276;14.416;2023-02-26T22:10:20;5.07;;;2.70;;
66609;SDS011;53468;48.276;14.416;2023-02-26T22:15:23;3.72;;;1.90;;
66609;SDS011;53468;48.276;14.416;2023-02-26T22:20:25;4.03;;;1.98;;
66609;SDS011;53468;48.276;14.416;2023-02-26T22:25:27;5.28;;;2.60;;
66609;SDS011;53468;48.276;14.416;2023-02-26T22:30:31;6.85;;;2.92;;
66609;SDS011;53468;48.276;14.416;2023-02-26T22:35:33;5.68;;;2.47;;
66609;SDS011;53468;48.276;14.416;2023-02-26T22:40:35;4.82;;;2.67;;
66609;SDS011;53468;48.276;14.416;2023-02-26T22:45:40;4.15;;;2.47;;
66609;SDS011;53468;48.276;14.416;2023-02-26T22:50:42;4.80;;;2.03;;
66609;SDS011;53468;48.276;14.416;2023-02-26T22:55:44;6.32;;;3.10;;
66609;SDS011;53468;48.276;14.416;2023-02-26T23:00:48;5.03;;;2.00;;
66609;SDS011;53468;48.276;14.416;2023-02-26T23:05:51;4.80;;;2.35;;
66609;SDS011;53468;48.276;14.416;2023-02-26T23:10:53;6.63;;;2.20;;
66609;SDS011;53468;48.276;14.416;2023-02-26T23:15:58;3.50;;;1.85;;
66609;SDS011;53468;48.276;14.416;2023-02-26T23:21:00;4.40;;;2.28;;
66609;SDS011;53468;48.276;14.416;2023-02-26T23:26:03;3.97;;;2.35;;
66609;SDS011;53468;48.276;14.416;2023-02-26T23:31:07;4.30;;;2.28;;
66609;SDS011;53468;48.276;14.416;2023-02-26T23:36:09;2.67;;;1.70;;
66609;SDS011;53468;48.276;14.416;2023-02-26T23:41:11;6.15;;;2.47;;
66609;SDS011;53468;48.276;14.416;2023-02-26T23:46:14;6.18;;;2.80;;
66609;SDS011;53468;48.276;14.416;2023-02-26T23:51:16;3.45;;;1.85;;
66609;SDS011;53468;48.276;14.416;2023-02-26T23:56:18;4.88;;;1.98;;
